sensor_id;sensor_type;location;lat;lon;timestamp;P1;durP1;ratioP1;P2;durP2;ratioP2
19388;SDS011;9830;41.876;23.474;2022-12-11T00:01:27;0.40;;;0.40;;
19388;SDS011;9830;41.876;23.474;2022-12-11T00:03:52;0.47;;;0.47;;
19388;SDS011;9830;41.876;23.474;2022-12-11T00:06:19;0.07;;;0.07;;
19388;SDS011;9830;41.876;23.474;2022-12-11T00:08:46;0.00;;;0.00;;
19388;SDS011;9830;41.876;23.474;2022-12-11T00:11:15;3.07;;;0.50;;
19388;SDS011;9830;41.876;23.474;2022-12-11T00:13:41;0.00;;;0.00;;
19388;SDS011;9830;41.876;23.474;2022-12-11T00:16:07;0.50;;;0.50;;
19388;SDS011;9830;41.876;23.474;2022-12-11T00:18:34;1.77;;;0.70;;
19388;SDS011;9830;41.876;23.474;2022-12-11T00:21:04;0.93;;;0.77;;
19388;SDS011;9830;41.876;23.474;2022-12-11T00:23:33;0.37;;;0.37;;
19388;SDS011;9830;41.876;23.474;2022-12-11T00:25:59;0.10;;;0.10;;
19388;SDS011;9830;41.876;23.474;2022-12-11T00:28:28;6.03;;;0.73;;
19388;SDS011;9830;41.876;23.474;2022-12-11T00:30:54;1.10;;;0.87;;
19388;SDS011;9830;41.876;23.474;2022-12-11T00:33:20;0.50;;;0.47;;
19388;SDS011;9830;41.876;23.474;2022-12-11T00:35:45;0.27;;;0.27;;
19388;SDS011;9830;41.876;23.474;2022-12-11T00:38:13;0.00;;;0.00;;
19388;SDS011;9830;41.876;23.474;2022-12-11T00:40:40;0.33;;;0.33;;
19388;SDS011;9830;41.876;23.474;2022-12-11T00:43:06;0.20;;;0.20;;
19388;SDS011;9830;41.876;23.474;2022-12-11T00:45:34;0.43;;;0.43;;
19388;SDS011;9830;41.876;23.474;2022-12-11T00:48:08;0.33;;;0.33;;
19388;SDS011;9830;41.876;23.474;2022-12-11T00:50:34;0.43;;;0.30;;
19388;SDS011;9830;41.876;23.474;2022-12-11T00:53:01;0.47;;;0.47;;
19388;SDS011;9830;41.876;23.474;2022-12-11T00:55:27;0.30;;;0.27;;
19388;SDS011;9830;41.876;23.474;2022-12-11T00:57:54;0.00;;;0.00;;
19388;SDS011;9830;41.876;23.474;2022-12-11T01:00:21;0.40;;;0.40;;
19388;SDS011;9830;41.876;23.474;2022-12-11T01:02:47;0.00;;;0.00;;
19388;SDS011;9830;41.876;23.474;2022-12-11T01:05:13;0.20;;;0.20;;
19388;SDS011;9830;41.876;23.474;2022-12-11T01:07:39;0.10;;;0.10;;
19388;SDS011;9830;41.876;23.474;2022-12-11T01:10:05;0.43;;;0.33;;
19388;SDS011;9830;41.876;23.474;2022-12-11T01:12:53;1.30;;;0.53;;
19388;SDS011;9830;41.876;23.474;2022-12-11T01:15:21;0.30;;;0.30;;
19388;SDS011;9830;41.876;23.474;2022-12-11T01:17:48;0.40;;;0.40;;
19388;SDS011;9830;41.876;23.474;2022-12-11T01:20:15;0.63;;;0.63;;
19388;SDS011;9830;41.876;23.474;2022-12-11T01:22:43;0.20;;;0.20;;
19388;SDS011;9830;41.876;23.474;2022-12-11T01:25:09;4.23;;;1.30;;
19388;SDS011;9830;41.876;23.474;2022-12-11T01:27:35;0.00;;;0.00;;
19388;SDS011;9830;41.876;23.474;2022-12-11T01:30:01;0.00;;;0.00;;
19388;SDS011;9830;41.876;23.474;2022-12-11T01:32:27;0.03;;;0.03;;
19388;SDS011;9830;41.876;23.474;2022-12-11T01:34:53;0.80;;;0.77;;
19388;SDS011;9830;41.876;23.474;2022-12-11T01:37:19;8.07;;;2.03;;
19388;SDS011;9830;41.876;23.474;2022-12-11T01:39:45;1.83;;;1.60;;
19388;SDS011;9830;41.876;23.474;2022-12-11T01:42:14;1.03;;;1.03;;
19388;SDS011;9830;41.876;23.474;2022-12-11T01:47:08;0.30;;;0.30;;
19388;SDS011;9830;41.876;23.474;2022-12-11T01:49:34;2.30;;;0.60;;
19388;SDS011;9830;41.876;23.474;2022-12-11T01:52:09;0.83;;;0.10;;
19388;SDS011;9830;41.876;23.474;2022-12-11T01:54:42;0.83;;;0.53;;
19388;SDS011;9830;41.876;23.474;2022-12-11T01:57:09;0.47;;;0.47;;
19388;SDS011;9830;41.876;23.474;2022-12-11T01:59:38;0.77;;;0.77;;
19388;SDS011;9830;41.876;23.474;2022-12-11T02:02:08;0.40;;;0.40;;
19388;SDS011;9830;41.876;23.474;2022-12-11T02:04:41;6.60;;;1.07;;
19388;SDS011;9830;41.876;23.474;2022-12-11T02:07:08;0.77;;;0.70;;
19388;SDS011;9830;41.876;23.474;2022-12-11T02:09:34;0.40;;;0.40;;
19388;SDS011;9830;41.876;23.474;2022-12-11T02:17:40;0.10;;;0.10;;
19388;SDS011;9830;41.876;23.474;2022-12-11T02:20:25;0.93;;;0.70;;
19388;SDS011;9830;41.876;23.474;2022-12-11T02:30:51;0.23;;;0.23;;
19388;SDS011;9830;41.876;23.474;2022-12-11T02:33:23;0.20;;;0.20;;
19388;SDS011;9830;41.876;23.474;2022-12-11T02:35:53;0.93;;;0.53;;
19388;SDS011;9830;41.876;23.474;2022-12-11T02:38:23;0.20;;;0.20;;
19388;SDS011;9830;41.876;23.474;2022-12-11T02:40:54;1.17;;;0.23;;
19388;SDS011;9830;41.876;23.474;2022-12-11T02:43:23;0.10;;;0.10;;
19388;SDS011;9830;41.876;23.474;2022-12-11T02:45:50;3.80;;;0.33;;
19388;SDS011;9830;41.876;23.474;2022-12-11T02:48:17;0.07;;;0.07;;
19388;SDS011;9830;41.876;23.474;2022-12-11T02:50:47;0.40;;;0.40;;
19388;SDS011;9830;41.876;23.474;2022-12-11T02:53:18;0.40;;;0.40;;
19388;SDS011;9830;41.876;23.474;2022-12-11T02:55:46;0.20;;;0.20;;
19388;SDS011;9830;41.876;23.474;2022-12-11T02:58:23;0.30;;;0.30;;
19388;SDS011;9830;41.876;23.474;2022-12-11T03:00:54;0.67;;;0.67;;
19388;SDS011;9830;41.876;23.474;2022-12-11T03:03:20;0.63;;;0.47;;
19388;SDS011;9830;41.876;23.474;2022-12-11T03:05:47;0.47;;;0.47;;
19388;SDS011;9830;41.876;23.474;2022-12-11T03:08:12;0.53;;;0.53;;
19388;SDS011;9830;41.876;23.474;2022-12-11T03:10:41;2.90;;;0.90;;
19388;SDS011;9830;41.876;23.474;2022-12-11T03:13:07;1.50;;;1.40;;
19388;SDS011;9830;41.876;23.474;2022-12-11T03:18:20;0.40;;;0.40;;
19388;SDS011;9830;41.876;23.474;2022-12-11T03:26:22;0.53;;;0.53;;
19388;SDS011;9830;41.876;23.474;2022-12-11T03:28:57;0.63;;;0.63;;
19388;SDS011;9830;41.876;23.474;2022-12-11T03:34:15;5.10;;;1.63;;
19388;SDS011;9830;41.876;23.474;2022-12-11T03:36:46;0.90;;;0.90;;
19388;SDS011;9830;41.876;23.474;2022-12-11T03:39:17;9.17;;;2.67;;
19388;SDS011;9830;41.876;23.474;2022-12-11T03:41:48;1.87;;;1.77;;
19388;SDS011;9830;41.876;23.474;2022-12-11T03:44:15;2.03;;;1.47;;
19388;SDS011;9830;41.876;23.474;2022-12-11T03:46:43;1.90;;;0.93;;
19388;SDS011;9830;41.876;23.474;2022-12-11T03:49:21;1.57;;;1.47;;
19388;SDS011;9830;41.876;23.474;2022-12-11T03:51:51;1.30;;;1.20;;
19388;SDS011;9830;41.876;23.474;2022-12-11T03:54:19;1.70;;;1.33;;
19388;SDS011;9830;41.876;23.474;2022-12-11T03:56:45;1.40;;;1.37;;
19388;SDS011;9830;41.876;23.474;2022-12-11T03:59:12;1.10;;;1.00;;
19388;SDS011;9830;41.876;23.474;2022-12-11T04:01:38;3.60;;;1.47;;
19388;SDS011;9830;41.876;23.474;2022-12-11T04:04:04;0.40;;;0.40;;
19388;SDS011;9830;41.876;23.474;2022-12-11T04:06:29;0.67;;;0.67;;
19388;SDS011;9830;41.876;23.474;2022-12-11T04:08:55;0.30;;;0.30;;
19388;SDS011;9830;41.876;23.474;2022-12-11T04:11:21;0.63;;;0.63;;
19388;SDS011;9830;41.876;23.474;2022-12-11T04:13:58;2.93;;;1.00;;
19388;SDS011;9830;41.876;23.474;2022-12-11T04:16:43;1.50;;;0.87;;
19388;SDS011;9830;41.876;23.474;2022-12-11T04:19:09;0.20;;;0.20;;
19388;SDS011;9830;41.876;23.474;2022-12-11T04:21:53;0.00;;;0.00;;
19388;SDS011;9830;41.876;23.474;2022-12-11T04:24:37;0.20;;;0.20;;
19388;SDS011;9830;41.876;23.474;2022-12-11T04:27:03;0.07;;;0.07;;
19388;SDS011;9830;41.876;23.474;2022-12-11T04:29:29;0.50;;;0.50;;
19388;SDS011;9830;41.876;23.474;2022-12-11T04:31:54;0.20;;;0.20;;
19388;SDS011;9830;41.876;23.474;2022-12-11T04:34:20;0.57;;;0.40;;
19388;SDS011;9830;41.876;23.474;2022-12-11T04:36:46;6.00;;;2.80;;
19388;SDS011;9830;41.876;23.474;2022-12-11T04:39:11;0.27;;;0.27;;
19388;SDS011;9830;41.876;23.474;2022-12-11T04:41:37;0.20;;;0.20;;
19388;SDS011;9830;41.876;23.474;2022-12-11T04:44:03;0.23;;;0.23;;
19388;SDS011;9830;41.876;23.474;2022-12-11T04:46:29;0.07;;;0.07;;
19388;SDS011;9830;41.876;23.474;2022-12-11T04:48:55;0.60;;;0.60;;
19388;SDS011;9830;41.876;23.474;2022-12-11T04:51:21;1.80;;;1.13;;
19388;SDS011;9830;41.876;23.474;2022-12-11T04:53:47;1.00;;;0.90;;
19388;SDS011;9830;41.876;23.474;2022-12-11T04:56:13;0.70;;;0.70;;
19388;SDS011;9830;41.876;23.474;2022-12-11T04:58:40;1.57;;;1.43;;
19388;SDS011;9830;41.876;23.474;2022-12-11T05:01:07;1.07;;;0.93;;
19388;SDS011;9830;41.876;23.474;2022-12-11T05:03:34;2.40;;;2.07;;
19388;SDS011;9830;41.876;23.474;2022-12-11T05:06:00;1.50;;;0.73;;
19388;SDS011;9830;41.876;23.474;2022-12-11T05:08:25;1.70;;;1.57;;
19388;SDS011;9830;41.876;23.474;2022-12-11T05:10:58;1.47;;;1.37;;
19388;SDS011;9830;41.876;23.474;2022-12-11T05:13:28;1.57;;;1.47;;
19388;SDS011;9830;41.876;23.474;2022-12-11T05:15:55;2.40;;;1.50;;
19388;SDS011;9830;41.876;23.474;2022-12-11T05:18:21;3.87;;;2.47;;
19388;SDS011;9830;41.876;23.474;2022-12-11T05:20:54;2.30;;;2.10;;
19388;SDS011;9830;41.876;23.474;2022-12-11T05:23:21;6.07;;;2.03;;
19388;SDS011;9830;41.876;23.474;2022-12-11T05:26:00;0.60;;;0.60;;
19388;SDS011;9830;41.876;23.474;2022-12-11T05:28:29;2.17;;;1.70;;
19388;SDS011;9830;41.876;23.474;2022-12-11T05:30:57;1.10;;;0.63;;
19388;SDS011;9830;41.876;23.474;2022-12-11T05:33:24;1.27;;;1.17;;
19388;SDS011;9830;41.876;23.474;2022-12-11T05:35:50;1.47;;;1.33;;
19388;SDS011;9830;41.876;23.474;2022-12-11T05:38:16;1.10;;;1.10;;
19388;SDS011;9830;41.876;23.474;2022-12-11T05:40:42;1.43;;;0.90;;
19388;SDS011;9830;41.876;23.474;2022-12-11T05:43:08;1.70;;;1.60;;
19388;SDS011;9830;41.876;23.474;2022-12-11T05:45:34;5.90;;;2.53;;
19388;SDS011;9830;41.876;23.474;2022-12-11T05:47:59;1.07;;;1.07;;
19388;SDS011;9830;41.876;23.474;2022-12-11T05:50:25;2.40;;;2.17;;
19388;SDS011;9830;41.876;23.474;2022-12-11T05:52:51;2.03;;;1.20;;
19388;SDS011;9830;41.876;23.474;2022-12-11T05:55:16;0.90;;;0.90;;
19388;SDS011;9830;41.876;23.474;2022-12-11T05:57:42;1.80;;;0.80;;
19388;SDS011;9830;41.876;23.474;2022-12-11T06:00:09;1.23;;;0.87;;
19388;SDS011;9830;41.876;23.474;2022-12-11T06:02:36;0.60;;;0.43;;
19388;SDS011;9830;41.876;23.474;2022-12-11T06:05:02;0.40;;;0.40;;
19388;SDS011;9830;41.876;23.474;2022-12-11T06:07:27;0.47;;;0.47;;
19388;SDS011;9830;41.876;23.474;2022-12-11T06:09:53;0.17;;;0.17;;
19388;SDS011;9830;41.876;23.474;2022-12-11T06:12:19;1.47;;;0.40;;
19388;SDS011;9830;41.876;23.474;2022-12-11T06:14:44;0.60;;;0.37;;
19388;SDS011;9830;41.876;23.474;2022-12-11T06:17:10;0.70;;;0.53;;
19388;SDS011;9830;41.876;23.474;2022-12-11T06:19:36;0.37;;;0.37;;
19388;SDS011;9830;41.876;23.474;2022-12-11T06:22:01;0.40;;;0.40;;
19388;SDS011;9830;41.876;23.474;2022-12-11T06:24:27;0.37;;;0.37;;
19388;SDS011;9830;41.876;23.474;2022-12-11T06:26:53;3.33;;;1.00;;
19388;SDS011;9830;41.876;23.474;2022-12-11T06:29:18;0.30;;;0.30;;
19388;SDS011;9830;41.876;23.474;2022-12-11T06:31:45;0.73;;;0.73;;
19388;SDS011;9830;41.876;23.474;2022-12-11T06:34:11;1.80;;;0.70;;
19388;SDS011;9830;41.876;23.474;2022-12-11T06:36:38;2.23;;;2.03;;
19388;SDS011;9830;41.876;23.474;2022-12-11T06:39:04;1.70;;;1.57;;
19388;SDS011;9830;41.876;23.474;2022-12-11T06:41:30;0.60;;;0.60;;
19388;SDS011;9830;41.876;23.474;2022-12-11T06:43:55;0.97;;;0.83;;
19388;SDS011;9830;41.876;23.474;2022-12-11T06:46:21;0.27;;;0.27;;
19388;SDS011;9830;41.876;23.474;2022-12-11T06:48:47;1.27;;;1.27;;
19388;SDS011;9830;41.876;23.474;2022-12-11T06:51:17;4.23;;;3.63;;
19388;SDS011;9830;41.876;23.474;2022-12-11T06:53:48;3.60;;;2.67;;
19388;SDS011;9830;41.876;23.474;2022-12-11T06:56:15;3.50;;;3.13;;
19388;SDS011;9830;41.876;23.474;2022-12-11T06:58:41;3.20;;;2.90;;
19388;SDS011;9830;41.876;23.474;2022-12-11T07:01:21;6.10;;;3.23;;
19388;SDS011;9830;41.876;23.474;2022-12-11T07:03:51;3.43;;;1.83;;
19388;SDS011;9830;41.876;23.474;2022-12-11T07:06:17;7.83;;;3.73;;
19388;SDS011;9830;41.876;23.474;2022-12-11T07:08:43;6.13;;;2.93;;
19388;SDS011;9830;41.876;23.474;2022-12-11T07:11:10;9.33;;;3.60;;
19388;SDS011;9830;41.876;23.474;2022-12-11T07:13:37;1.97;;;1.87;;
19388;SDS011;9830;41.876;23.474;2022-12-11T07:16:04;5.17;;;2.87;;
19388;SDS011;9830;41.876;23.474;2022-12-11T07:18:34;1.27;;;1.27;;
19388;SDS011;9830;41.876;23.474;2022-12-11T07:21:05;3.17;;;2.67;;
19388;SDS011;9830;41.876;23.474;2022-12-11T07:23:32;14.20;;;1.90;;
19388;SDS011;9830;41.876;23.474;2022-12-11T07:26:03;3.00;;;2.17;;
19388;SDS011;9830;41.876;23.474;2022-12-11T07:28:33;3.30;;;2.47;;
19388;SDS011;9830;41.876;23.474;2022-12-11T07:31:03;2.57;;;2.37;;
19388;SDS011;9830;41.876;23.474;2022-12-11T07:33:34;3.23;;;2.67;;
19388;SDS011;9830;41.876;23.474;2022-12-11T07:36:01;3.53;;;3.23;;
19388;SDS011;9830;41.876;23.474;2022-12-11T07:38:28;8.57;;;5.03;;
19388;SDS011;9830;41.876;23.474;2022-12-11T07:40:53;4.20;;;2.93;;
19388;SDS011;9830;41.876;23.474;2022-12-11T07:43:19;3.17;;;2.93;;
19388;SDS011;9830;41.876;23.474;2022-12-11T07:45:45;3.57;;;3.20;;
19388;SDS011;9830;41.876;23.474;2022-12-11T07:48:10;1.63;;;1.53;;
19388;SDS011;9830;41.876;23.474;2022-12-11T07:50:36;5.07;;;2.43;;
19388;SDS011;9830;41.876;23.474;2022-12-11T07:53:02;2.23;;;2.03;;
19388;SDS011;9830;41.876;23.474;2022-12-11T07:55:28;3.13;;;2.90;;
19388;SDS011;9830;41.876;23.474;2022-12-11T07:57:54;3.53;;;2.37;;
19388;SDS011;9830;41.876;23.474;2022-12-11T08:00:19;2.47;;;1.87;;
19388;SDS011;9830;41.876;23.474;2022-12-11T08:02:45;6.73;;;3.00;;
19388;SDS011;9830;41.876;23.474;2022-12-11T08:05:11;4.03;;;2.37;;
19388;SDS011;9830;41.876;23.474;2022-12-11T08:07:37;2.23;;;1.20;;
19388;SDS011;9830;41.876;23.474;2022-12-11T08:10:03;0.53;;;0.53;;
19388;SDS011;9830;41.876;23.474;2022-12-11T08:12:29;1.50;;;1.40;;
19388;SDS011;9830;41.876;23.474;2022-12-11T08:14:55;0.60;;;0.60;;
19388;SDS011;9830;41.876;23.474;2022-12-11T08:17:21;1.03;;;1.03;;
19388;SDS011;9830;41.876;23.474;2022-12-11T08:19:47;11.90;;;1.80;;
19388;SDS011;9830;41.876;23.474;2022-12-11T08:22:12;4.67;;;1.80;;
19388;SDS011;9830;41.876;23.474;2022-12-11T08:24:38;8.33;;;3.10;;
19388;SDS011;9830;41.876;23.474;2022-12-11T08:27:04;1.30;;;1.20;;
19388;SDS011;9830;41.876;23.474;2022-12-11T08:29:30;0.63;;;0.63;;
19388;SDS011;9830;41.876;23.474;2022-12-11T08:31:56;2.13;;;1.00;;
19388;SDS011;9830;41.876;23.474;2022-12-11T08:34:22;1.40;;;1.27;;
19388;SDS011;9830;41.876;23.474;2022-12-11T08:36:47;2.20;;;2.00;;
19388;SDS011;9830;41.876;23.474;2022-12-11T08:39:13;14.70;;;2.50;;
19388;SDS011;9830;41.876;23.474;2022-12-11T08:41:39;5.40;;;2.70;;
19388;SDS011;9830;41.876;23.474;2022-12-11T08:44:08;2.37;;;2.27;;
19388;SDS011;9830;41.876;23.474;2022-12-11T08:46:36;5.10;;;3.80;;
19388;SDS011;9830;41.876;23.474;2022-12-11T08:49:01;3.60;;;3.30;;
19388;SDS011;9830;41.876;23.474;2022-12-11T08:51:28;7.83;;;3.90;;
19388;SDS011;9830;41.876;23.474;2022-12-11T08:53:58;4.47;;;3.57;;
19388;SDS011;9830;41.876;23.474;2022-12-11T08:56:25;8.33;;;4.37;;
19388;SDS011;9830;41.876;23.474;2022-12-11T08:58:52;4.07;;;3.67;;
19388;SDS011;9830;41.876;23.474;2022-12-11T09:01:23;5.33;;;4.60;;
19388;SDS011;9830;41.876;23.474;2022-12-11T09:03:51;22.00;;;8.20;;
19388;SDS011;9830;41.876;23.474;2022-12-11T09:06:19;12.70;;;4.07;;
19388;SDS011;9830;41.876;23.474;2022-12-11T09:08:47;6.73;;;4.13;;
19388;SDS011;9830;41.876;23.474;2022-12-11T09:11:14;6.40;;;3.37;;
19388;SDS011;9830;41.876;23.474;2022-12-11T09:13:42;8.33;;;2.23;;
19388;SDS011;9830;41.876;23.474;2022-12-11T09:16:12;2.40;;;1.50;;
19388;SDS011;9830;41.876;23.474;2022-12-11T09:18:40;2.93;;;2.63;;
19388;SDS011;9830;41.876;23.474;2022-12-11T09:21:07;2.57;;;2.37;;
19388;SDS011;9830;41.876;23.474;2022-12-11T09:23:34;0.90;;;0.90;;
19388;SDS011;9830;41.876;23.474;2022-12-11T09:26:04;3.77;;;1.57;;
19388;SDS011;9830;41.876;23.474;2022-12-11T09:28:35;1.17;;;1.13;;
19388;SDS011;9830;41.876;23.474;2022-12-11T09:31:07;1.33;;;1.27;;
19388;SDS011;9830;41.876;23.474;2022-12-11T09:33:33;2.73;;;2.40;;
19388;SDS011;9830;41.876;23.474;2022-12-11T09:36:00;1.70;;;1.63;;
19388;SDS011;9830;41.876;23.474;2022-12-11T09:38:26;6.73;;;1.97;;
19388;SDS011;9830;41.876;23.474;2022-12-11T09:40:53;1.87;;;1.73;;
19388;SDS011;9830;41.876;23.474;2022-12-11T09:43:39;2.63;;;2.43;;
19388;SDS011;9830;41.876;23.474;2022-12-11T09:46:13;0.73;;;0.73;;
19388;SDS011;9830;41.876;23.474;2022-12-11T09:48:42;2.17;;;1.97;;
19388;SDS011;9830;41.876;23.474;2022-12-11T09:51:16;4.67;;;2.10;;
19388;SDS011;9830;41.876;23.474;2022-12-11T09:53:43;1.53;;;1.43;;
19388;SDS011;9830;41.876;23.474;2022-12-11T10:15:53;18.10;;;7.63;;
19388;SDS011;9830;41.876;23.474;2022-12-11T10:18:26;14.70;;;7.80;;
19388;SDS011;9830;41.876;23.474;2022-12-11T10:20:53;9.73;;;6.40;;
19388;SDS011;9830;41.876;23.474;2022-12-11T10:23:23;8.50;;;5.27;;
19388;SDS011;9830;41.876;23.474;2022-12-11T10:25:55;9.70;;;7.50;;
19388;SDS011;9830;41.876;23.474;2022-12-11T10:28:28;6.23;;;5.70;;
19388;SDS011;9830;41.876;23.474;2022-12-11T10:33:45;8.87;;;5.10;;
19388;SDS011;9830;41.876;23.474;2022-12-11T10:36:12;10.00;;;3.60;;
19388;SDS011;9830;41.876;23.474;2022-12-11T10:38:49;7.83;;;5.43;;
19388;SDS011;9830;41.876;23.474;2022-12-11T10:41:57;6.20;;;4.10;;
19388;SDS011;9830;41.876;23.474;2022-12-11T10:46:41;2.07;;;1.90;;
19388;SDS011;9830;41.876;23.474;2022-12-11T10:49:17;16.30;;;4.43;;
19388;SDS011;9830;41.876;23.474;2022-12-11T10:51:47;7.73;;;5.47;;
19388;SDS011;9830;41.876;23.474;2022-12-11T10:56:56;10.37;;;5.47;;
19388;SDS011;9830;41.876;23.474;2022-12-11T10:59:37;3.90;;;3.53;;
19388;SDS011;9830;41.876;23.474;2022-12-11T11:04:46;3.07;;;2.60;;
19388;SDS011;9830;41.876;23.474;2022-12-11T11:09:41;1.60;;;1.30;;
19388;SDS011;9830;41.876;23.474;2022-12-11T11:14:42;1.47;;;1.17;;
19388;SDS011;9830;41.876;23.474;2022-12-11T11:17:14;0.13;;;0.13;;
19388;SDS011;9830;41.876;23.474;2022-12-11T11:19:43;0.47;;;0.20;;
19388;SDS011;9830;41.876;23.474;2022-12-11T11:22:13;0.07;;;0.07;;
19388;SDS011;9830;41.876;23.474;2022-12-11T11:27:35;0.40;;;0.40;;
19388;SDS011;9830;41.876;23.474;2022-12-11T11:30:36;0.40;;;0.20;;
19388;SDS011;9830;41.876;23.474;2022-12-11T11:33:11;0.30;;;0.30;;
19388;SDS011;9830;41.876;23.474;2022-12-11T11:35:49;0.57;;;0.57;;
19388;SDS011;9830;41.876;23.474;2022-12-11T11:38:33;0.60;;;0.37;;
19388;SDS011;9830;41.876;23.474;2022-12-11T11:43:43;2.10;;;1.70;;
19388;SDS011;9830;41.876;23.474;2022-12-11T11:46:34;3.37;;;2.63;;
19388;SDS011;9830;41.876;23.474;2022-12-11T11:51:42;2.10;;;1.93;;
19388;SDS011;9830;41.876;23.474;2022-12-11T11:54:30;3.40;;;2.00;;
19388;SDS011;9830;41.876;23.474;2022-12-11T11:57:16;14.90;;;3.87;;
19388;SDS011;9830;41.876;23.474;2022-12-11T12:00:04;2.37;;;2.17;;
19388;SDS011;9830;41.876;23.474;2022-12-11T12:02:34;5.13;;;3.77;;
19388;SDS011;9830;41.876;23.474;2022-12-11T12:05:01;5.97;;;4.40;;
19388;SDS011;9830;41.876;23.474;2022-12-11T12:10:43;6.77;;;3.00;;
19388;SDS011;9830;41.876;23.474;2022-12-11T12:22:53;2.13;;;2.00;;
19388;SDS011;9830;41.876;23.474;2022-12-11T12:25:23;2.33;;;2.13;;
19388;SDS011;9830;41.876;23.474;2022-12-11T12:30:47;2.07;;;1.47;;
19388;SDS011;9830;41.876;23.474;2022-12-11T12:35:58;0.80;;;0.80;;
19388;SDS011;9830;41.876;23.474;2022-12-11T12:41:21;1.03;;;1.03;;
19388;SDS011;9830;41.876;23.474;2022-12-11T12:44:15;2.07;;;1.40;;
19388;SDS011;9830;41.876;23.474;2022-12-11T12:51:49;1.97;;;1.87;;
19388;SDS011;9830;41.876;23.474;2022-12-11T12:54:16;2.23;;;2.03;;
19388;SDS011;9830;41.876;23.474;2022-12-11T12:56:44;3.70;;;2.20;;
19388;SDS011;9830;41.876;23.474;2022-12-11T12:59:22;2.53;;;1.57;;
19388;SDS011;9830;41.876;23.474;2022-12-11T13:02:34;2.67;;;1.77;;
19388;SDS011;9830;41.876;23.474;2022-12-11T13:04:42;2.37;;;1.47;;
19388;SDS011;9830;41.876;23.474;2022-12-11T13:09:42;3.73;;;2.43;;
19388;SDS011;9830;41.876;23.474;2022-12-11T13:12:14;3.50;;;2.57;;
19388;SDS011;9830;41.876;23.474;2022-12-11T13:14:40;9.37;;;3.87;;
19388;SDS011;9830;41.876;23.474;2022-12-11T13:19:44;14.67;;;5.73;;
19388;SDS011;9830;41.876;23.474;2022-12-11T13:27:35;9.00;;;4.07;;
19388;SDS011;9830;41.876;23.474;2022-12-11T13:30:15;9.97;;;2.73;;
19388;SDS011;9830;41.876;23.474;2022-12-11T13:33:13;4.67;;;3.30;;
19388;SDS011;9830;41.876;23.474;2022-12-11T13:35:41;2.20;;;1.90;;
19388;SDS011;9830;41.876;23.474;2022-12-11T13:38:14;11.20;;;3.33;;
19388;SDS011;9830;41.876;23.474;2022-12-11T13:40:43;3.03;;;2.83;;
19388;SDS011;9830;41.876;23.474;2022-12-11T13:43:17;4.00;;;3.60;;
19388;SDS011;9830;41.876;23.474;2022-12-11T13:48:24;5.13;;;3.47;;
19388;SDS011;9830;41.876;23.474;2022-12-11T13:50:56;8.07;;;4.87;;
19388;SDS011;9830;41.876;23.474;2022-12-11T13:53:23;3.57;;;2.63;;
19388;SDS011;9830;41.876;23.474;2022-12-11T13:55:56;3.50;;;2.50;;
19388;SDS011;9830;41.876;23.474;2022-12-11T13:58:27;1.90;;;1.63;;
19388;SDS011;9830;41.876;23.474;2022-12-11T14:03:42;0.60;;;0.60;;
19388;SDS011;9830;41.876;23.474;2022-12-11T14:06:32;0.50;;;0.50;;
19388;SDS011;9830;41.876;23.474;2022-12-11T14:08:59;1.60;;;0.33;;
19388;SDS011;9830;41.876;23.474;2022-12-11T14:11:31;1.17;;;1.00;;
19388;SDS011;9830;41.876;23.474;2022-12-11T14:14:01;0.53;;;0.53;;
19388;SDS011;9830;41.876;23.474;2022-12-11T14:16:29;1.63;;;1.37;;
19388;SDS011;9830;41.876;23.474;2022-12-11T14:18:58;1.07;;;0.53;;
19388;SDS011;9830;41.876;23.474;2022-12-11T14:21:28;0.33;;;0.33;;
19388;SDS011;9830;41.876;23.474;2022-12-11T14:23:54;0.73;;;0.73;;
19388;SDS011;9830;41.876;23.474;2022-12-11T14:26:23;1.50;;;1.03;;
19388;SDS011;9830;41.876;23.474;2022-12-11T14:28:54;0.87;;;0.67;;
19388;SDS011;9830;41.876;23.474;2022-12-11T14:33:56;0.23;;;0.23;;
19388;SDS011;9830;41.876;23.474;2022-12-11T14:36:26;0.37;;;0.30;;
19388;SDS011;9830;41.876;23.474;2022-12-11T14:38:55;0.00;;;0.00;;
19388;SDS011;9830;41.876;23.474;2022-12-11T14:41:28;0.10;;;0.10;;
19388;SDS011;9830;41.876;23.474;2022-12-11T14:44:04;0.20;;;0.20;;
19388;SDS011;9830;41.876;23.474;2022-12-11T14:46:40;0.10;;;0.10;;
19388;SDS011;9830;41.876;23.474;2022-12-11T14:49:20;0.00;;;0.00;;
19388;SDS011;9830;41.876;23.474;2022-12-11T14:51:47;0.00;;;0.00;;
19388;SDS011;9830;41.876;23.474;2022-12-11T14:56:55;0.10;;;0.10;;
19388;SDS011;9830;41.876;23.474;2022-12-11T14:59:22;1.20;;;0.57;;
19388;SDS011;9830;41.876;23.474;2022-12-11T15:07:43;0.33;;;0.33;;
19388;SDS011;9830;41.876;23.474;2022-12-11T15:13:22;0.50;;;0.50;;
19388;SDS011;9830;41.876;23.474;2022-12-11T15:15:48;0.10;;;0.10;;
19388;SDS011;9830;41.876;23.474;2022-12-11T15:18:19;0.20;;;0.20;;
19388;SDS011;9830;41.876;23.474;2022-12-11T15:20:54;0.43;;;0.33;;
19388;SDS011;9830;41.876;23.474;2022-12-11T15:23:22;0.10;;;0.10;;
19388;SDS011;9830;41.876;23.474;2022-12-11T15:25:51;0.30;;;0.30;;
19388;SDS011;9830;41.876;23.474;2022-12-11T15:28:35;0.00;;;0.00;;
19388;SDS011;9830;41.876;23.474;2022-12-11T15:31:06;0.17;;;0.03;;
19388;SDS011;9830;41.876;23.474;2022-12-11T15:33:51;0.73;;;0.30;;
19388;SDS011;9830;41.876;23.474;2022-12-11T15:36:20;0.30;;;0.27;;
19388;SDS011;9830;41.876;23.474;2022-12-11T15:38:47;0.20;;;0.10;;
19388;SDS011;9830;41.876;23.474;2022-12-11T15:41:13;0.43;;;0.40;;
19388;SDS011;9830;41.876;23.474;2022-12-11T15:43:41;0.10;;;0.10;;
19388;SDS011;9830;41.876;23.474;2022-12-11T15:46:08;0.30;;;0.20;;
19388;SDS011;9830;41.876;23.474;2022-12-11T15:48:34;2.33;;;0.40;;
19388;SDS011;9830;41.876;23.474;2022-12-11T15:51:00;0.60;;;0.60;;
19388;SDS011;9830;41.876;23.474;2022-12-11T15:53:27;1.33;;;0.30;;
19388;SDS011;9830;41.876;23.474;2022-12-11T15:55:53;0.20;;;0.17;;
19388;SDS011;9830;41.876;23.474;2022-12-11T15:58:21;0.17;;;0.17;;
19388;SDS011;9830;41.876;23.474;2022-12-11T16:00:48;0.27;;;0.27;;
19388;SDS011;9830;41.876;23.474;2022-12-11T16:03:15;0.93;;;0.50;;
19388;SDS011;9830;41.876;23.474;2022-12-11T16:05:42;0.57;;;0.53;;
19388;SDS011;9830;41.876;23.474;2022-12-11T16:08:11;2.60;;;0.97;;
19388;SDS011;9830;41.876;23.474;2022-12-11T16:10:39;0.30;;;0.30;;
19388;SDS011;9830;41.876;23.474;2022-12-11T16:13:07;0.43;;;0.23;;
19388;SDS011;9830;41.876;23.474;2022-12-11T16:15:32;0.73;;;0.67;;
19388;SDS011;9830;41.876;23.474;2022-12-11T16:18:02;0.60;;;0.60;;
19388;SDS011;9830;41.876;23.474;2022-12-11T16:20:30;1.03;;;0.93;;
19388;SDS011;9830;41.876;23.474;2022-12-11T16:22:56;0.23;;;0.23;;
19388;SDS011;9830;41.876;23.474;2022-12-11T16:25:23;0.10;;;0.10;;
19388;SDS011;9830;41.876;23.474;2022-12-11T16:27:49;4.20;;;0.50;;
19388;SDS011;9830;41.876;23.474;2022-12-11T16:30:15;0.10;;;0.10;;
19388;SDS011;9830;41.876;23.474;2022-12-11T16:32:42;0.10;;;0.10;;
19388;SDS011;9830;41.876;23.474;2022-12-11T16:35:07;0.20;;;0.20;;
19388;SDS011;9830;41.876;23.474;2022-12-11T16:37:33;1.70;;;0.70;;
19388;SDS011;9830;41.876;23.474;2022-12-11T16:39:58;0.77;;;0.77;;
19388;SDS011;9830;41.876;23.474;2022-12-11T16:42:24;1.30;;;0.73;;
19388;SDS011;9830;41.876;23.474;2022-12-11T16:44:50;0.60;;;0.60;;
19388;SDS011;9830;41.876;23.474;2022-12-11T16:47:15;0.53;;;0.43;;
19388;SDS011;9830;41.876;23.474;2022-12-11T16:49:41;1.50;;;1.40;;
19388;SDS011;9830;41.876;23.474;2022-12-11T16:52:07;0.40;;;0.40;;
19388;SDS011;9830;41.876;23.474;2022-12-11T16:54:33;2.63;;;1.03;;
19388;SDS011;9830;41.876;23.474;2022-12-11T16:56:59;0.97;;;0.70;;
19388;SDS011;9830;41.876;23.474;2022-12-11T16:59:24;0.33;;;0.33;;
19388;SDS011;9830;41.876;23.474;2022-12-11T17:01:50;0.50;;;0.50;;
19388;SDS011;9830;41.876;23.474;2022-12-11T17:04:16;0.43;;;0.43;;
19388;SDS011;9830;41.876;23.474;2022-12-11T17:06:42;0.30;;;0.30;;